Time;durP1;ratioP1;P1;durP2;ratioP2;P2;SDS_P1;SDS_P2;PMS_P1;PMS_P2;Temp;Humidity;BMP_temperature;BMP_pressure;BME280_temperature;BME280_humidity;BME280_pressure;Samples;Min_cycle;Max_cycle;Signal;HPM_P1;HPM_P2
2023/10/18 00:04:10;;;;;;;19.35;13.50;;;;;;;10.81;67.92;97898.13;10452394;28;20072;-50
2023/10/18 00:14:26;;;;;;;16.85;11.90;;;;;;;10.84;67.91;97895.53;10452700;28;20059;-51
2023/10/18 00:19:26;;;;;;;20.67;13.07;;;;;;;10.90;68.13;97903.34;10452646;28;20484;-49
2023/10/18 00:24:24;;;;;;;;;;;;;;;10.90;68.09;97898.16;10453354;28;20509;-51
2023/10/18 00:29:24;;;;;;;21.17;13.70;;;;;;;10.75;67.65;97866.97;10452442;28;20390;-48
2023/10/18 00:34:22;;;;;;;;;;;;;;;10.94;67.66;97899.91;10452763;28;20095;-50
2023/10/18 00:39:27;;;;;;;19.52;14.27;;;;;;;10.93;67.31;97899.88;10452236;28;19947;-49
2023/10/18 00:44:27;;;;;;;18.55;13.52;;;;;;;10.37;71.61;97911.91;10452619;28;20075;-52
2023/10/18 00:49:26;;;;;;;22.88;13.82;;;;;;;9.91;73.58;97911.75;10451632;28;20064;-50
2023/10/18 00:54:26;;;;;;;;;;;;;;;9.91;74.09;97904.84;10452621;28;20462;-48
2023/10/18 00:59:27;;;;;;;22.35;13.82;;;;;;;9.99;73.32;97890.19;10450912;28;20019;-49
2023/10/18 01:04:29;;;;;;;18.83;11.88;;;;;;;10.11;73.41;97891.94;10451257;28;20514;-50
2023/10/18 01:09:27;;;;;;;19.65;12.45;;;;;;;10.20;72.61;97886.78;10450992;28;20111;-50
2023/10/18 01:14:27;;;;;;;18.05;12.63;;;;;;;10.21;72.68;97895.44;10450504;28;20134;-52
2023/10/18 01:19:26;;;;;;;18.17;12.20;;;;;;;10.24;72.99;97891.97;10450190;28;20122;-50
2023/10/18 01:24:35;;;;;;;19.33;12.15;;;;;;;10.18;72.92;97891.09;10450216;28;20130;-49
2023/10/18 01:29:34;;;;;;;18.20;11.20;;;;;;;10.19;72.65;97892.84;10450162;28;20119;-47
2023/10/18 01:34:33;;;;;;;17.63;11.73;;;;;;;9.96;72.46;97830.56;10450823;28;20090;-49
2023/10/18 01:39:32;;;;;;;18.42;12.30;;;;;;;10.35;72.05;97891.13;10448551;28;20060;-46
2023/10/18 01:44:33;;;;;;;17.88;12.25;;;;;;;10.37;72.47;97897.19;10449598;28;20134;-50
2023/10/18 01:49:38;;;;;;;16.98;12.00;;;;;;;10.46;72.02;97892.91;10449612;28;20055;-50
2023/10/18 01:54:38;;;;;;;20.92;13.40;;;;;;;10.49;71.39;97904.13;10449136;28;20063;-48
2023/10/18 01:59:37;;;;;;;18.67;13.10;;;;;;;10.42;72.06;97904.97;10448872;28;20458;-51
2023/10/18 02:04:40;;;;;;;19.95;14.45;;;;;;;10.09;71.70;97866.88;10449627;28;20063;-49
2023/10/18 02:09:48;;;;;;;20.58;14.15;;;;;;;10.36;72.38;97908.44;10448652;28;20063;-48
2023/10/18 02:14:48;;;;;;;21.58;13.73;;;;;;;10.40;71.97;97906.72;10448613;28;20494;-51
2023/10/18 02:19:48;;;;;;;22.75;14.52;;;;;;;10.43;72.06;97909.34;10448451;28;20052;-51
2023/10/18 02:24:50;;;;;;;21.67;13.55;;;;;;;10.39;71.82;97913.63;10448814;28;20576;-50
2023/10/18 02:29:51;;;;;;;21.42;13.30;;;;;;;10.38;71.95;97911.91;10448703;28;20512;-47
2023/10/18 02:34:51;;;;;;;21.15;14.75;;;;;;;10.44;72.19;97915.38;10448337;28;20544;-49
2023/10/18 02:39:51;;;;;;;21.27;15.20;;;;;;;10.48;71.59;97915.38;10454908;28;20502;-48
2023/10/18 02:44:50;;;;;;;23.60;14.48;;;;;;;10.53;72.02;97918.84;10456868;28;20056;-49
2023/10/18 02:49:52;;;;;;;20.00;13.82;;;;;;;10.56;70.93;97912.81;10457018;28;20043;-49
2023/10/18 02:54:51;;;;;;;22.00;14.90;;;;;;;10.56;71.60;97902.41;10456400;28;20063;-47
2023/10/18 02:59:50;;;;;;;;;;;;;;;10.58;71.36;97913.66;10457227;28;20115;-49
2023/10/18 03:04:49;;;;;;;27.38;18.13;;;;;;;10.62;70.89;97913.69;10456502;28;19935;-51
2023/10/18 03:09:49;;;;;;;25.30;16.58;;;;;;;10.62;70.49;97903.28;10455247;28;20074;-50
2023/10/18 03:14:54;;;;;;;19.65;13.88;;;;;;;10.42;71.50;97868.66;10455447;28;20067;-48
2023/10/18 03:19:55;;;;;;;20.85;12.63;;;;;;;10.06;72.05;97809.84;10455512;28;20512;-47
2023/10/18 03:24:54;;;;;;;20.77;12.90;;;;;;;10.38;72.19;97873.00;10454369;28;20064;-50
2023/10/18 03:29:57;;;;;;;19.67;12.85;;;;;;;10.30;72.63;97874.69;10455793;28;20060;-47
2023/10/18 03:34:56;;;;;;;17.65;12.27;;;;;;;10.19;72.70;97855.66;10454539;28;20070;-50
2023/10/18 03:39:56;;;;;;;18.73;13.43;;;;;;;10.13;73.39;97848.75;10454637;28;20032;-49
2023/10/18 03:44:57;;;;;;;20.52;13.25;;;;;;;10.09;73.59;97853.91;10454535;28;20524;-49
2023/10/18 03:49:58;;;;;;;19.38;13.20;;;;;;;9.97;74.03;97863.38;10453796;28;20068;-47
2023/10/18 03:59:58;;;;;;;17.25;12.75;;;;;;;9.95;73.83;97840.91;10454482;28;20035;-50
2023/10/18 04:04:58;;;;;;;19.10;12.88;;;;;;;9.99;74.07;97840.06;10452862;28;20074;-49
2023/10/18 04:10:12;;;;;;;23.17;14.02;;;;;;;9.95;74.21;97840.91;10453424;28;20479;-51
2023/10/18 04:15:21;;;;;;;25.42;17.25;;;;;;;9.55;74.63;97815.72;10453182;28;20067;-49
2023/10/18 04:25:30;;;;;;;25.92;17.60;;;;;;;9.76;75.34;97851.22;10452632;28;20044;-49
2023/10/18 04:30:32;;;;;;;26.23;16.10;;;;;;;9.75;75.82;97843.44;10452909;28;20502;-49
2023/10/18 04:35:37;;;;;;;24.60;17.38;;;;;;;9.41;75.86;97812.22;10452143;28;20066;-48
2023/10/18 04:40:36;;;;;;;29.30;19.90;;;;;;;9.58;76.26;97858.91;10452399;28;20067;-51
2023/10/18 04:45:35;;;;;;;30.02;17.75;;;;;;;9.49;76.78;97856.31;10451944;28;20047;-49
2023/10/18 04:50:34;;;;;;;25.73;16.88;;;;;;;9.43;77.13;97866.63;10450496;28;20483;-50
2023/10/18 04:55:41;;;;;;;26.35;17.20;;;;;;;9.17;77.27;97818.09;10451324;28;20538;-47
2023/10/18 05:00:56;;;;;;;27.23;16.80;;;;;;;9.41;77.20;97868.34;10330996;28;20076;-47
2023/10/18 05:05:56;;;;;;;26.05;15.25;;;;;;;9.45;77.28;97890.81;10326244;28;20045;-51
2023/10/18 05:11:21;;;;;;;32.95;19.63;;;;;;;9.57;77.19;97907.28;10326816;28;20061;-51
2023/10/18 05:16:16;;;;;;;33.17;19.90;;;;;;;9.57;76.64;97901.22;10323640;28;20129;-50
2023/10/18 05:21:20;;;;;;;37.30;19.17;;;;;;;9.61;77.24;97913.34;10327139;28;20061;-50
2023/10/18 05:26:20;;;;;;;23.88;13.38;;;;;;;9.60;76.72;97906.41;10325738;28;20567;-48
2023/10/18 05:31:43;;;;;;;19.65;12.65;;;;;;;9.45;76.44;97870.09;10324278;28;20061;-47
2023/10/18 05:41:49;;;;;;;26.98;15.65;;;;;;;9.89;73.89;97935.09;10326357;28;20057;-51
2023/10/18 05:46:50;;;;;;;24.23;14.38;;;;;;;9.92;73.81;97942.00;10326701;28;20472;-48
2023/10/18 05:57:16;;;;;;;17.60;10.80;;;;;;;10.31;73.08;97937.84;10315584;28;20069;-49
2023/10/18 06:02:22;;;;;;;18.08;10.35;;;;;;;10.58;72.39;97939.63;10326383;28;20129;-50
2023/10/18 06:07:24;;;;;;;16.73;10.52;;;;;;;10.67;71.07;97941.38;10324025;28;20125;-49
2023/10/18 06:12:27;;;;;;;17.88;11.38;;;;;;;10.66;70.50;97931.84;10324916;28;20558;-51
2023/10/18 06:17:26;;;;;;;16.95;10.98;;;;;;;10.66;70.12;97947.41;10323444;28;20333;-51
2023/10/18 06:22:43;;;;;;;;;;;;;;;10.65;70.34;97941.34;10325886;28;20079;-49
2023/10/18 06:27:42;;;;;;;21.85;12.63;;;;;;;10.44;71.38;97918.84;10327606;28;20035;-49
2023/10/18 06:32:43;;;;;;;19.67;11.85;;;;;;;10.83;70.18;97958.69;10328482;28;20060;-48
2023/10/18 06:37:42;;;;;;;19.63;12.07;;;;;;;10.24;70.12;97819.34;10327786;28;20880;-51
2023/10/18 06:42:41;;;;;;;20.20;12.98;;;;;;;10.82;71.00;97964.75;10327903;28;20475;-49
2023/10/18 06:47:44;;;;;;;;;;;;;;;10.84;70.61;97965.59;10324841;28;20053;-50
2023/10/18 06:52:52;;;;;;;20.33;13.25;;;;;;;10.86;70.81;97960.44;10326467;28;19990;-48
2023/10/18 06:57:52;;;;;;;24.02;14.50;;;;;;;11.12;69.77;97966.53;10324639;28;20551;-48
2023/10/18 07:02:51;;;;;;;30.27;17.70;;;;;;;11.29;69.69;97953.56;10327166;28;20061;-51
2023/10/18 07:07:52;;;;;;;30.27;17.60;;;;;;;11.66;67.32;97959.53;10325573;28;20108;-51
2023/10/18 07:12:52;;;;;;;33.97;18.40;;;;;;;11.80;66.35;97956.91;10326220;28;20126;-51
2023/10/18 07:17:51;;;;;;;21.83;15.60;;;;;;;12.06;66.66;97958.56;10323725;28;20130;-50
2023/10/18 07:22:55;;;;;;;28.60;15.50;;;;;;;12.39;65.25;97954.13;10328063;28;20057;-49
2023/10/18 07:27:55;;;;;;;19.63;13.13;;;;;;;12.64;63.48;97957.47;10332836;28;20125;-49
2023/10/18 07:32:57;;;;;;;21.88;12.85;;;;;;;12.87;61.59;97955.56;10333361;28;20061;-51
2023/10/18 07:37:56;;;;;;;16.77;12.80;;;;;;;13.05;60.44;97956.34;10331804;28;20128;-49
2023/10/18 07:42:55;;;;;;;24.88;13.73;;;;;;;13.12;59.61;97939.78;10332516;28;20029;-48
2023/10/18 07:47:54;;;;;;;22.58;13.18;;;;;;;13.24;59.46;97954.44;10332193;28;20468;-49
2023/10/18 07:52:54;;;;;;;20.35;12.15;;;;;;;13.39;58.53;97943.00;10327183;28;20690;-50
2023/10/18 07:57:54;;;;;;;19.67;12.07;;;;;;;13.53;56.95;97952.41;10325474;28;20862;-51
2023/10/18 08:02:53;;;;;;;18.80;13.35;;;;;;;13.64;56.28;97951.50;10319994;28;20128;-50
2023/10/18 08:07:52;;;;;;;;;;;;;;;13.90;56.45;97946.00;10320746;28;20026;-50
2023/10/18 08:23:40;;;;;;;17.00;11.43;;;;;;;13.54;52.98;97927.25;10326324;28;20140;-50
2023/10/18 08:28:39;;;;;;;18.45;12.15;;;;;;;13.90;54.58;97952.06;10327632;28;20813;-51
2023/10/18 08:33:39;;;;;;;;;;;;;;;14.29;54.01;97955.09;10325915;28;20120;-49
2023/10/18 08:38:41;;;;;;;16.00;11.48;;;;;;;14.54;53.24;97944.31;10324389;28;19951;-48
2023/10/18 08:43:52;;;;;;;18.27;11.02;;;;;;;14.78;52.31;97950.97;10341055;28;20065;-50
2023/10/18 08:48:54;;;;;;;14.65;11.07;;;;;;;14.86;50.66;97956.09;10327773;28;20117;-51
2023/10/18 08:53:56;;;;;;;15.55;10.10;;;;;;;14.82;51.78;97956.13;10325468;28;20057;-51
2023/10/18 08:58:58;;;;;;;17.83;11.77;;;;;;;15.00;50.42;97954.13;10326848;28;20112;-52
2023/10/18 09:03:57;;;;;;;18.00;11.40;;;;;;;14.92;50.01;97966.44;10322079;28;20073;-52
2023/10/18 09:09:08;;;;;;;;;;;;;;;14.68;50.45;97972.84;10324022;28;20045;-51
2023/10/18 09:14:07;;;;;;;12.43;9.25;;;;;;;14.13;49.65;97841.34;10324634;28;20398;-48
2023/10/18 09:19:07;;;;;;;;;;;;;;;15.23;50.39;97966.84;10323945;28;20504;-49
2023/10/18 09:24:06;;;;;;;14.35;8.38;;;;;;;15.49;48.31;97921.94;10319508;28;20028;-51
2023/10/18 09:29:07;;;;;;;11.50;7.15;;;;;;;16.06;46.74;97955.75;10322140;28;20487;-50
2023/10/18 09:34:08;;;;;;;14.65;8.05;;;;;;;16.28;45.26;97937.03;10319274;28;20152;-49
2023/10/18 09:39:09;;;;;;;12.88;8.00;;;;;;;16.48;45.64;97931.34;10323376;28;20116;-48
2023/10/18 09:44:12;;;;;;;11.60;7.28;;;;;;;16.72;44.69;97929.91;10324762;28;20052;-53
2023/10/18 09:49:20;;;;;;;9.48;6.93;;;;;;;16.82;42.15;97926.25;10322722;28;20520;-51
2023/10/18 09:54:21;;;;;;;10.77;6.50;;;;;;;16.70;42.54;97921.25;10310678;28;20559;-52
2023/10/18 09:59:27;;;;;;;9.52;5.68;;;;;;;16.81;42.81;97918.41;10321875;28;20124;-49
2023/10/18 10:04:35;;;;;;;12.23;6.70;;;;;;;16.83;41.32;97893.88;10319434;28;20135;-48
2023/10/18 10:09:38;;;;;;;11.05;5.03;;;;;;;16.70;40.70;97897.69;10316293;28;20148;-50
2023/10/18 10:14:37;;;;;;;7.55;5.20;;;;;;;16.78;41.15;97866.88;10319419;28;20125;-51
2023/10/18 10:19:43;;;;;;;12.23;6.20;;;;;;;17.09;41.86;97871.41;10322626;28;20032;-51
2023/10/18 10:24:43;;;;;;;9.95;6.63;;;;;;;17.10;41.65;97857.41;10323628;28;20068;-50
2023/10/18 10:29:42;;;;;;;11.70;6.72;;;;;;;17.32;42.45;97863.81;10322313;28;20448;-50
2023/10/18 10:34:42;;;;;;;9.85;6.20;;;;;;;17.59;42.36;97853.47;10325480;28;20037;-49
2023/10/18 10:39:45;;;;;;;11.40;6.70;;;;;;;17.74;39.90;97849.56;10324567;28;20049;-49
2023/10/18 10:50:53;;;;;;;9.05;6.05;;;;;;;17.88;40.53;97852.69;10317446;28;20808;-50
2023/10/18 10:55:51;;;;;;;;;;;;;;;18.31;40.33;97848.78;10317847;28;20108;-49
2023/10/18 11:01:31;;;;;;;9.47;6.20;;;;;;;18.59;38.90;97833.00;10328533;28;20020;-49
2023/10/18 11:06:32;;;;;;;12.13;6.28;;;;;;;18.64;39.38;97832.84;10330471;28;20132;-51
2023/10/18 11:11:32;;;;;;;10.63;5.97;;;;;;;18.19;38.92;97834.25;10326106;28;20120;-50
2023/10/18 11:16:31;;;;;;;7.30;5.22;;;;;;;18.14;39.28;97828.28;10328369;28;20121;-49
2023/10/18 11:21:30;;;;;;;10.98;4.78;;;;;;;17.80;39.68;97817.94;10326005;28;20029;-49
2023/10/18 11:26:29;;;;;;;8.73;4.80;;;;;;;17.74;39.84;97818.91;10330561;28;20128;-52
2023/10/18 11:31:29;;;;;;;8.90;5.47;;;;;;;17.82;39.80;97812.63;10331197;28;20036;-50
2023/10/18 11:36:28;;;;;;;7.13;4.65;;;;;;;17.85;39.40;97815.19;10332234;28;20060;-51
2023/10/18 11:41:30;;;;;;;11.50;4.57;;;;;;;16.80;40.19;97768.13;10328068;28;20814;-48
2023/10/18 11:46:29;;;;;;;10.10;5.72;;;;;;;17.06;40.66;97808.56;10329601;28;20471;-49
2023/10/18 11:51:30;;;;;;;10.77;4.50;;;;;;;17.20;40.69;97795.94;10318122;28;20490;-51
2023/10/18 11:56:36;;;;;;;10.20;5.05;;;;;;;16.92;40.98;97735.53;10330802;28;20072;-48
2023/10/18 12:01:37;;;;;;;7.95;4.45;;;;;;;17.33;40.93;97796.47;10329473;28;20128;-48
2023/10/18 12:06:36;;;;;;;7.45;5.43;;;;;;;17.38;40.92;97794.59;10329333;28;20073;-51
2023/10/18 12:11:37;;;;;;;11.20;5.22;;;;;;;17.43;41.32;97786.59;10329332;28;20108;-51
2023/10/18 12:16:37;;;;;;;8.13;4.32;;;;;;;17.79;41.21;97775.97;10329267;28;20068;-48
2023/10/18 12:21:37;;;;;;;9.40;4.85;;;;;;;18.17;40.64;97795.81;10332158;28;20069;-50
2023/10/18 12:26:36;;;;;;;11.48;5.00;;;;;;;18.45;40.27;97789.69;10330464;28;20064;-51
2023/10/18 12:31:41;;;;;;;7.13;4.80;;;;;;;18.76;39.78;97790.44;10331004;28;20036;-50
2023/10/18 12:36:40;;;;;;;7.53;4.47;;;;;;;18.88;40.42;97799.69;10333302;28;20057;-49
2023/10/18 12:41:41;;;;;;;6.78;3.95;;;;;;;18.74;40.02;97776.50;10331530;28;20120;-52
2023/10/18 12:46:41;;;;;;;6.18;3.75;;;;;;;18.48;40.00;97790.47;10332941;28;20061;-49
2023/10/18 12:51:42;;;;;;;8.90;3.78;;;;;;;18.55;40.76;97786.72;10332360;28;20065;-48
2023/10/18 12:56:54;;;;;;;7.43;3.60;;;;;;;18.81;41.59;97783.25;10330803;28;20049;-51
2023/10/18 13:01:59;;;;;;;6.70;3.80;;;;;;;19.05;41.74;97790.38;10328923;28;20069;-48
2023/10/18 13:07:09;;;;;;;7.88;4.30;;;;;;;19.08;40.86;97790.25;10331845;28;20496;-54
2023/10/18 13:12:08;;;;;;;5.90;3.33;;;;;;;19.15;41.82;97786.50;10316970;28;20519;-51
2023/10/18 13:17:10;;;;;;;3.92;2.40;;;;;;;19.08;42.50;97792.88;10323841;28;20565;-51
2023/10/18 13:22:19;;;;;;;4.45;2.42;;;;;;;19.12;42.57;97789.25;10324624;28;20500;-52
2023/10/18 13:27:29;;;;;;;5.03;2.57;;;;;;;19.01;42.55;97784.34;10325971;28;20069;-49
2023/10/18 13:32:28;;;;;;;7.75;2.95;;;;;;;18.94;43.00;97778.44;10324941;28;20113;-49
2023/10/18 13:37:27;;;;;;;2.50;2.30;;;;;;;18.79;43.03;97768.44;10327526;28;20064;-49
2023/10/18 13:42:27;;;;;;;3.70;2.28;;;;;;;18.49;43.45;97765.88;10326258;28;20484;-52
2023/10/18 13:47:27;;;;;;;3.17;2.53;;;;;;;18.46;43.84;97757.25;10326749;28;20065;-49
2023/10/18 13:52:28;;;;;;;3.28;2.35;;;;;;;18.33;44.05;97757.63;10327098;28;20067;-50
2023/10/18 13:57:28;;;;;;;5.53;2.60;;;;;;;18.06;44.27;97746.25;10325588;28;20120;-50
2023/10/18 14:02:27;;;;;;;3.92;2.75;;;;;;;18.16;44.74;97754.69;10326558;28;20456;-48
2023/10/18 14:07:26;;;;;;;4.30;2.60;;;;;;;18.09;44.91;97751.41;10327118;28;20060;-48
2023/10/18 14:12:25;;;;;;;4.43;2.55;;;;;;;18.10;44.93;97753.09;10325675;28;20025;-49
2023/10/18 14:17:24;;;;;;;4.55;2.92;;;;;;;17.86;45.26;97727.63;10325865;28;20026;-50
2023/10/18 14:22:27;;;;;;;7.82;2.95;;;;;;;17.77;45.57;97745.34;10326032;28;20557;-51
2023/10/18 14:27:28;;;;;;;6.82;3.60;;;;;;;17.49;45.81;97749.69;10326585;28;20057;-50
2023/10/18 14:32:27;;;;;;;4.43;3.22;;;;;;;17.21;46.50;97750.44;10329117;28;20069;-50
2023/10/18 14:37:26;;;;;;;5.53;3.15;;;;;;;16.98;47.20;97738.00;10334413;28;20037;-49
2023/10/18 14:42:32;;;;;;;6.38;3.13;;;;;;;16.83;47.66;97739.25;10335098;28;20087;-49
2023/10/18 14:47:38;;;;;;;5.18;3.67;;;;;;;16.82;47.87;97732.31;10334318;28;20567;-52
2023/10/18 14:52:42;;;;;;;5.68;4.05;;;;;;;16.79;48.17;97728.84;10333020;28;20072;-51
2023/10/18 14:57:41;;;;;;;5.38;3.55;;;;;;;16.61;48.60;97707.47;10333673;28;20140;-52
2023/10/18 15:02:40;;;;;;;5.97;3.92;;;;;;;16.63;49.08;97721.41;10333344;28;20067;-49
2023/10/18 15:07:39;;;;;;;6.68;3.92;;;;;;;16.40;49.14;97729.00;10332300;28;20036;-51
2023/10/18 15:12:38;;;;;;;;;;;;;;;15.95;50.07;97722.19;10333021;28;20045;-51
2023/10/18 15:17:37;;;;;;;5.13;3.10;;;;;;;15.79;50.43;97720.81;10332660;28;19921;-50
2023/10/18 15:22:36;;;;;;;;;;;;;;;15.56;51.35;97723.91;10333022;28;20049;-52
2023/10/18 15:27:35;;;;;;;5.47;3.57;;;;;;;15.38;51.54;97712.06;10332381;28;19924;-50
2023/10/18 15:32:34;;;;;;;;;;;;;;;15.43;51.79;97726.75;10333014;28;20037;-50
2023/10/18 15:37:33;;;;;;;5.30;4.03;;;;;;;15.35;52.33;97733.06;10332044;28;19986;-49
2023/10/18 15:42:31;;;;;;;;;;;;;;;15.14;53.07;97734.34;10331156;28;20029;-53
2023/10/18 15:47:30;;;;;;;5.68;4.50;;;;;;;15.06;53.45;97734.50;10331680;28;19970;-50
2023/10/18 15:52:30;;;;;;;;;;;;;;;14.86;54.02;97739.25;10331925;28;20021;-52
2023/10/18 15:57:29;;;;;;;6.50;4.65;;;;;;;14.73;53.91;97736.88;10331788;28;20435;-49
2023/10/18 16:02:27;;;;;;;;;;;;;;;14.75;53.87;97736.81;10331602;28;20491;-52
2023/10/18 16:07:26;;;;;;;7.88;4.53;;;;;;;14.58;54.37;97719.66;10330768;28;20008;-48
2023/10/18 16:12:25;;;;;;;7.03;4.88;;;;;;;14.56;54.08;97726.66;10328449;28;20152;-52
2023/10/18 16:17:24;;;;;;;6.32;4.63;;;;;;;14.36;54.81;97732.22;10329515;28;20057;-51
2023/10/18 16:22:23;;;;;;;6.78;4.78;;;;;;;14.21;55.64;97722.03;10330709;28;20033;-53
2023/10/18 16:27:22;;;;;;;;;;;;;;;14.10;55.94;97734.38;10331407;28;20045;-49
2023/10/18 16:32:21;;;;;;;9.13;4.95;;;;;;;13.91;56.71;97733.78;10330941;28;20385;-52
2023/10/18 16:37:20;;;;;;;;;;;;;;;13.77;57.25;97737.47;10327398;28;20446;-50
2023/10/18 16:42:19;;;;;;;7.93;5.53;;;;;;;13.55;57.84;97744.72;10327176;28;19986;-53
2023/10/18 16:47:21;;;;;;;11.80;6.18;;;;;;;13.34;58.71;97737.16;10325780;28;20022;-49
2023/10/18 16:52:20;;;;;;;8.65;5.90;;;;;;;13.21;59.50;97735.56;10326559;28;20076;-50
2023/10/18 16:57:19;;;;;;;;;;;;;;;13.09;59.70;97731.34;10325598;28;20104;-50
2023/10/18 17:02:18;;;;;;;6.53;5.07;;;;;;;13.02;59.99;97730.56;10324955;28;20008;-48
2023/10/18 17:07:17;;;;;;;6.82;5.07;;;;;;;12.95;60.16;97723.69;10326118;28;20117;-48
2023/10/18 17:12:15;;;;;;;7.30;5.07;;;;;;;12.81;61.09;97730.78;10326544;28;20725;-50
2023/10/18 17:17:15;;;;;;;7.97;5.57;;;;;;;12.76;61.02;97733.44;10325917;28;20035;-49
2023/10/18 17:22:14;;;;;;;8.05;5.15;;;;;;;12.66;61.79;97737.88;10329752;28;20667;-50
2023/10/18 17:27:13;;;;;;;7.35;5.13;;;;;;;12.69;61.43;97737.84;10328624;28;20136;-49
2023/10/18 17:32:13;;;;;;;7.55;4.97;;;;;;;12.64;61.84;97737.03;10328553;28;20492;-49
2023/10/18 17:37:12;;;;;;;8.43;5.07;;;;;;;12.57;62.09;97757.94;10328202;28;20068;-49
2023/10/18 17:42:10;;;;;;;;;;;;;;;12.44;62.88;97752.84;10329504;28;20064;-49
2023/10/18 17:47:09;;;;;;;11.20;6.32;;;;;;;12.44;63.30;97759.78;10327960;28;19983;-49
2023/10/18 17:52:08;;;;;;;9.02;5.75;;;;;;;12.39;63.43;97751.13;10328284;28;20128;-49
2023/10/18 17:57:10;;;;;;;11.50;7.15;;;;;;;12.33;63.38;97741.66;10327354;28;20052;-51
2023/10/18 18:02:12;;;;;;;12.40;8.07;;;;;;;12.30;63.73;97750.34;10327255;28;20053;-48
2023/10/18 18:07:11;;;;;;;12.75;8.82;;;;;;;12.25;64.03;97749.50;10326710;28;20068;-47
2023/10/18 18:12:10;;;;;;;12.52;8.60;;;;;;;12.13;64.53;97751.31;10327571;28;20120;-47
2023/10/18 18:17:09;;;;;;;;;;;;;;;12.10;64.72;97744.41;10326490;28;20079;-49
2023/10/18 18:22:07;;;;;;;14.10;9.20;;;;;;;12.05;65.11;97743.56;10323477;28;20019;-48
2023/10/18 18:27:06;;;;;;;10.07;8.38;;;;;;;11.91;66.07;97735.00;10323035;28;20148;-50
2023/10/18 18:32:08;;;;;;;16.45;10.10;;;;;;;11.89;66.51;97745.41;10324411;28;20041;-47
2023/10/18 18:37:07;;;;;;;9.75;7.50;;;;;;;11.75;67.88;97727.28;10323294;28;20132;-53
2023/10/18 18:42:07;;;;;;;11.20;7.93;;;;;;;11.79;67.12;97739.41;10323680;28;20061;-52
2023/10/18 18:47:06;;;;;;;10.02;7.38;;;;;;;11.67;67.71;97744.69;10322619;28;20535;-49
2023/10/18 18:52:05;;;;;;;9.02;7.32;;;;;;;11.74;67.07;97748.13;10323222;28;20550;-48
2023/10/18 18:57:04;;;;;;;9.85;7.07;;;;;;;11.71;67.28;97763.72;10322890;28;20129;-50
2023/10/18 19:02:03;;;;;;;9.68;7.32;;;;;;;11.63;67.28;97751.63;10322588;28;20052;-49
2023/10/18 19:07:03;;;;;;;8.38;7.00;;;;;;;11.72;67.01;97765.47;10322626;28;20580;-51
2023/10/18 19:12:03;;;;;;;9.55;7.07;;;;;;;11.70;66.96;97757.66;10323187;28;20129;-51
2023/10/18 19:17:02;;;;;;;8.52;6.93;;;;;;;11.68;67.31;97760.25;10321693;28;20064;-49
2023/10/18 19:22:01;;;;;;;11.77;7.93;;;;;;;11.74;66.91;97759.38;10329268;28;20037;-52
2023/10/18 19:27:00;;;;;;;10.52;8.52;;;;;;;11.76;66.60;97759.34;10329297;28;20063;-49
2023/10/18 19:31:59;;;;;;;13.95;10.23;;;;;;;11.65;66.79;97762.88;10329755;28;20068;-49
2023/10/18 19:36:58;;;;;;;11.43;8.98;;;;;;;11.42;67.77;97755.19;10329467;28;20041;-50
2023/10/18 19:41:57;;;;;;;10.18;7.95;;;;;;;11.38;67.27;97750.84;10329471;28;20539;-51
2023/10/18 19:46:56;;;;;;;11.15;8.88;;;;;;;11.35;67.92;97760.41;10329018;28;20033;-53
2023/10/18 19:51:55;;;;;;;10.68;9.05;;;;;;;11.34;67.63;97758.69;10329506;28;20057;-52
2023/10/18 19:56:54;;;;;;;12.35;8.35;;;;;;;11.13;68.15;97772.63;10329073;28;20158;-49
2023/10/18 20:01:53;;;;;;;8.10;5.95;;;;;;;10.73;67.82;97772.66;10328862;28;20029;-51
2023/10/18 20:06:52;;;;;;;;;;;;;;;10.61;67.55;97782.22;10329231;28;20137;-49
2023/10/18 20:11:51;;;;;;;7.05;5.85;;;;;;;10.29;67.97;97774.44;10328151;28;20433;-50
2023/10/18 20:16:50;;;;;;;11.50;6.60;;;;;;;10.27;69.37;97785.66;10328599;28;20464;-51
2023/10/18 20:21:49;;;;;;;10.50;6.72;;;;;;;10.26;68.63;97783.91;10331219;28;20459;-48
2023/10/18 20:26:48;;;;;;;8.93;6.68;;;;;;;9.91;68.90;97745.84;10331589;28;20053;-48
2023/10/18 20:31:48;;;;;;;9.55;7.22;;;;;;;10.10;68.86;97778.72;10330288;28;20043;-48
2023/10/18 20:36:46;;;;;;;9.20;7.15;;;;;;;10.02;69.51;97774.38;10330716;28;20077;-49
2023/10/18 20:41:45;;;;;;;12.18;7.90;;;;;;;9.94;69.77;97783.03;10330409;28;20113;-50
2023/10/18 20:46:48;;;;;;;12.60;8.75;;;;;;;9.90;69.89;97767.47;10330022;28;20079;-51
2023/10/18 20:51:51;;;;;;;17.20;14.05;;;;;;;9.82;71.21;97771.78;10330118;28;21276;-51
2023/10/18 20:56:51;;;;;;;17.75;11.77;;;;;;;8.85;71.20;97629.84;10329858;28;20056;-48
2023/10/18 21:01:50;;;;;;;16.67;11.82;;;;;;;9.57;71.86;97767.38;10329838;28;20376;-48
2023/10/18 21:06:52;;;;;;;17.98;11.88;;;;;;;9.37;72.20;97762.97;10329577;28;20065;-50
2023/10/18 21:11:52;;;;;;;20.15;15.13;;;;;;;9.11;73.57;97771.47;10329488;28;20056;-53
2023/10/18 21:16:51;;;;;;;19.23;14.85;;;;;;;8.88;73.91;97779.09;10326443;28;20064;-51
2023/10/18 21:21:50;;;;;;;21.08;14.43;;;;;;;8.88;73.75;97785.16;10325825;28;20541;-47
2023/10/18 21:26:51;;;;;;;20.48;13.38;;;;;;;8.71;74.35;97772.09;10323675;28;20157;-49
2023/10/18 21:31:50;;;;;;;18.60;13.90;;;;;;;8.66;74.73;97772.94;10325096;28;20063;-47
2023/10/18 21:36:49;;;;;;;20.90;14.85;;;;;;;8.56;75.27;97778.91;10325299;28;20029;-48
2023/10/18 21:41:48;;;;;;;20.77;16.10;;;;;;;8.48;75.70;97777.13;10323339;28;20033;-49
2023/10/18 21:46:46;;;;;;;22.55;16.48;;;;;;;8.53;75.75;97761.66;10324364;28;20120;-51
2023/10/18 21:51:45;;;;;;;22.65;16.55;;;;;;;8.44;75.18;97762.44;10324927;28;20124;-48
2023/10/18 21:56:45;;;;;;;20.80;15.20;;;;;;;8.42;75.32;97758.97;10324767;28;20065;-49
2023/10/18 22:01:47;;;;;;;;;;;;;;;8.48;75.72;97753.84;10324864;28;20152;-48
2023/10/18 22:06:46;;;;;;;20.85;15.23;;;;;;;8.38;76.25;97756.34;10324526;28;19960;-51
2023/10/18 22:11:48;;;;;;;23.40;16.50;;;;;;;8.20;76.46;97747.59;10324220;28;20594;-49
2023/10/18 22:16:56;;;;;;;19.92;14.75;;;;;;;7.71;76.72;97671.34;10324102;28;20158;-49
2023/10/18 22:21:55;;;;;;;22.58;15.57;;;;;;;7.96;77.09;97722.41;10320683;28;20563;-49
2023/10/18 22:26:57;;;;;;;20.05;14.30;;;;;;;8.08;77.40;97743.19;10321537;28;20068;-50
2023/10/18 22:31:56;;;;;;;23.00;15.57;;;;;;;7.73;79.12;97735.09;10321495;28;20136;-48
2023/10/18 22:36:56;;;;;;;22.02;16.48;;;;;;;7.68;79.00;97720.41;10323891;28;20492;-48
2023/10/18 22:41:57;;;;;;;18.27;12.27;;;;;;;7.78;80.65;97729.97;10323574;28;20193;-51
2023/10/18 22:46:57;;;;;;;13.23;9.98;;;;;;;8.19;82.50;97726.91;10323184;28;20492;-47
2023/10/18 22:52:13;;;;;;;11.30;8.43;;;;;;;8.53;82.13;97686.63;10324267;28;20060;-49
2023/10/18 22:57:24;;;;;;;9.57;8.10;;;;;;;9.17;80.30;97722.31;10330263;28;20504;-48
2023/10/18 23:02:27;;;;;;;10.90;8.32;;;;;;;9.53;79.25;97715.53;10331894;28;20140;-50
2023/10/18 23:07:32;;;;;;;15.20;8.45;;;;;;;9.64;78.29;97685.34;10331242;28;20073;-51
2023/10/18 23:12:31;;;;;;;11.18;8.73;;;;;;;10.07;76.76;97713.88;10330160;28;20120;-48
2023/10/18 23:17:32;;;;;;;10.60;8.35;;;;;;;10.27;74.37;97702.66;10331128;28;20041;-48
2023/10/18 23:22:49;;;;;;;8.82;7.75;;;;;;;10.43;73.71;97704.38;10331014;28;20564;-48
2023/10/18 23:38:39;;;;;;;16.98;9.30;;;;;;;10.68;71.95;97691.34;10330430;28;20423;-49
2023/10/18 23:43:48;;;;;;;10.27;8.52;;;;;;;10.73;71.66;97698.28;10330070;28;20618;-49
2023/10/18 23:53:49;;;;;;;12.02;9.32;;;;;;;10.88;71.30;97683.56;10329077;28;20084;-50
2023/10/18 23:58:48;;;;;;;12.30;9.00;;;;;;;10.89;70.73;97677.47;10330203;28;20570;-50
